createdAt,value
2022-10-22T00:02:27.795Z,5.20
2022-10-22T00:04:54.579Z,4.70
2022-10-22T00:07:21.246Z,4.90
2022-10-22T00:09:47.645Z,4.80
2022-10-22T00:12:15.384Z,4.50
2022-10-22T00:14:42.735Z,5.00
2022-10-22T00:17:11.626Z,4.57
2022-10-22T00:19:39.153Z,4.57
2022-10-22T00:22:06.087Z,3.97
2022-10-22T00:24:36.790Z,4.40
2022-10-22T00:27:03.968Z,5.00
2022-10-22T00:29:30.457Z,4.40
2022-10-22T00:31:57.050Z,4.40
2022-10-22T00:34:23.937Z,5.53
2022-10-22T00:36:51.211Z,4.47
2022-10-22T00:39:20.409Z,4.83
2022-10-22T00:41:48.687Z,5.17
2022-10-22T00:44:52.537Z,5.30
2022-10-22T00:47:20.969Z,5.87
2022-10-22T00:49:48.034Z,4.90
2022-10-22T00:52:14.584Z,4.83
2022-10-22T00:54:42.483Z,5.07
2022-10-22T00:57:09.693Z,5.00
2022-10-22T00:59:37.673Z,4.27
2022-10-22T01:02:04.236Z,4.93
2022-10-22T01:04:30.647Z,4.53
2022-10-22T01:06:57.147Z,4.90
2022-10-22T01:09:46.761Z,5.73
2022-10-22T01:12:31.892Z,4.50
2022-10-22T01:15:11.579Z,4.63
2022-10-22T01:17:56.019Z,4.37
2022-10-22T01:20:50.449Z,4.87
2022-10-22T01:23:49.342Z,5.47
2022-10-22T01:26:21.683Z,5.50
2022-10-22T01:29:07.286Z,6.30
2022-10-22T01:31:40.113Z,5.93
2022-10-22T01:34:08.242Z,4.73
2022-10-22T01:36:37.518Z,5.77
2022-10-22T01:39:05.549Z,5.40
2022-10-22T01:41:32.121Z,5.57
2022-10-22T01:43:58.525Z,6.53
2022-10-22T01:46:28.023Z,5.20
2022-10-22T01:49:03.245Z,6.30
2022-10-22T01:51:38.832Z,5.57
2022-10-22T01:54:33.861Z,6.20
2022-10-22T01:57:28.523Z,5.03
2022-10-22T02:00:06.262Z,4.30
2022-10-22T02:02:35.802Z,4.60
2022-10-22T02:05:16.940Z,5.53
2022-10-22T02:07:58.187Z,5.47
2022-10-22T02:10:25.109Z,5.50
2022-10-22T02:12:55.872Z,5.53
2022-10-22T02:15:25.638Z,4.83
2022-10-22T02:17:55.911Z,5.90
2022-10-22T02:20:27.750Z,5.13
2022-10-22T02:22:55.476Z,5.20
2022-10-22T02:25:23.632Z,5.10
2022-10-22T02:27:58.576Z,6.10
2022-10-22T02:30:25.002Z,5.03
2022-10-22T02:33:02.798Z,5.43
2022-10-22T02:35:30.259Z,4.53
2022-10-22T02:37:58.944Z,4.50
2022-10-22T02:40:26.206Z,5.50
2022-10-22T02:42:53.199Z,6.33
2022-10-22T02:45:20.396Z,6.90
2022-10-22T02:47:47.339Z,6.60
2022-10-22T02:50:13.792Z,7.43
2022-10-22T02:52:40.428Z,7.47
2022-10-22T02:55:07.803Z,8.17
2022-10-22T02:57:34.222Z,8.17
2022-10-22T03:00:00.643Z,8.20
2022-10-22T03:02:27.077Z,8.23
2022-10-22T03:04:53.437Z,8.23
2022-10-22T03:07:19.963Z,6.97
2022-10-22T03:09:46.650Z,6.30
2022-10-22T03:12:13.051Z,6.80
2022-10-22T03:14:39.451Z,6.57
2022-10-22T03:17:05.881Z,6.90
2022-10-22T03:19:32.339Z,6.10
2022-10-22T03:22:10.117Z,7.43
2022-10-22T03:24:39.776Z,7.40
2022-10-22T03:27:06.290Z,7.33
2022-10-22T03:29:36.050Z,5.90
2022-10-22T03:32:02.613Z,6.60
2022-10-22T03:34:29.016Z,6.40
2022-10-22T03:36:58.143Z,6.63
2022-10-22T03:39:24.830Z,5.87
2022-10-22T03:41:52.546Z,7.17
2022-10-22T03:44:20.731Z,6.37
2022-10-22T03:46:47.157Z,6.37
2022-10-22T03:49:13.511Z,6.87
2022-10-22T03:51:39.953Z,7.23
2022-10-22T03:54:06.473Z,7.33
2022-10-22T03:56:33.079Z,7.30
2022-10-22T03:59:00.989Z,6.73
2022-10-22T04:01:29.900Z,6.67
2022-10-22T04:03:56.797Z,6.63
2022-10-22T04:06:23.856Z,6.60
2022-10-22T04:08:50.264Z,7.10
2022-10-22T04:11:17.165Z,7.40
2022-10-22T04:13:44.278Z,7.07
2022-10-22T04:16:20.856Z,7.13
2022-10-22T04:18:49.195Z,7.47
2022-10-22T04:21:17.740Z,6.93
2022-10-22T04:23:46.205Z,7.80
2022-10-22T04:26:12.868Z,7.77
2022-10-22T04:28:39.580Z,7.70
2022-10-22T04:31:14.951Z,7.43
2022-10-22T04:33:41.866Z,8.77
2022-10-22T04:36:14.268Z,8.13
2022-10-22T04:38:42.304Z,8.57
2022-10-22T04:41:30.970Z,8.00
2022-10-22T04:43:58.352Z,7.97
2022-10-22T04:46:26.572Z,8.10
2022-10-22T04:48:53.450Z,8.00
2022-10-22T04:51:22.157Z,7.17
2022-10-22T04:53:48.737Z,7.27
2022-10-22T04:56:25.048Z,7.40
2022-10-22T04:58:54.865Z,7.70
2022-10-22T05:01:24.031Z,7.67
2022-10-22T05:03:52.432Z,8.53
2022-10-22T05:06:20.979Z,7.73
2022-10-22T05:08:48.829Z,7.57
2022-10-22T05:11:20.565Z,7.97
2022-10-22T05:13:47.586Z,8.00
2022-10-22T05:16:14.506Z,8.07
2022-10-22T05:18:43.054Z,8.10
2022-10-22T05:21:18.696Z,8.40
2022-10-22T05:23:46.853Z,8.50
2022-10-22T05:26:15.147Z,9.60
2022-10-22T05:28:41.805Z,8.67
2022-10-22T05:31:10.581Z,10.37
2022-10-22T05:33:37.092Z,9.90
2022-10-22T05:36:05.687Z,10.43
2022-10-22T05:38:33.579Z,12.17
2022-10-22T05:41:11.413Z,9.70
2022-10-22T05:43:38.092Z,8.40
2022-10-22T05:46:07.349Z,8.67
2022-10-22T05:48:34.075Z,7.93
2022-10-22T05:51:05.494Z,8.43
2022-10-22T05:53:32.988Z,8.27
2022-10-22T05:56:03.720Z,9.30
2022-10-22T05:58:30.332Z,8.43
2022-10-22T06:01:27.802Z,9.13
2022-10-22T06:03:56.876Z,9.50
2022-10-22T06:06:30.886Z,8.80
2022-10-22T06:09:20.248Z,9.13
2022-10-22T06:11:48.250Z,8.10
2022-10-22T06:14:14.840Z,8.20
2022-10-22T06:16:41.309Z,8.53
2022-10-22T06:19:08.078Z,8.27
2022-10-22T06:21:34.430Z,7.13
2022-10-22T06:24:01.518Z,8.97
2022-10-22T06:26:28.289Z,8.77
2022-10-22T06:28:56.156Z,8.37
2022-10-22T06:31:23.418Z,7.97
2022-10-22T06:33:49.834Z,8.20
2022-10-22T06:36:19.335Z,8.27
2022-10-22T06:38:45.901Z,7.63
2022-10-22T06:41:14.860Z,8.60
2022-10-22T06:43:45.231Z,8.80
2022-10-22T06:46:14.903Z,8.07
2022-10-22T06:48:49.691Z,8.70
2022-10-22T06:51:16.090Z,8.40
2022-10-22T06:53:42.605Z,8.10
2022-10-22T06:56:11.862Z,7.77
2022-10-22T06:58:38.941Z,6.80
2022-10-22T07:01:11.504Z,8.33
2022-10-22T07:03:39.093Z,8.00
2022-10-22T07:06:10.205Z,7.43
2022-10-22T07:08:38.231Z,6.80
2022-10-22T07:11:10.193Z,7.87
2022-10-22T07:13:36.925Z,8.50
2022-10-22T07:16:04.593Z,9.63
2022-10-22T07:18:31.895Z,9.40
2022-10-22T07:20:58.397Z,9.80
2022-10-22T07:23:25.037Z,10.00
2022-10-22T07:25:51.532Z,9.07
2022-10-22T07:28:18.145Z,7.80
2022-10-22T07:30:44.625Z,8.20
2022-10-22T07:33:11.495Z,8.37
2022-10-22T07:35:39.887Z,10.47
2022-10-22T07:38:07.735Z,10.60
2022-10-22T07:40:35.092Z,9.23
2022-10-22T07:43:02.050Z,8.87
2022-10-22T07:45:28.676Z,7.87
2022-10-22T07:47:55.207Z,8.00
2022-10-22T07:50:21.800Z,8.17
2022-10-22T07:52:48.353Z,8.30
2022-10-22T07:55:14.834Z,5.70
2022-10-22T07:57:41.325Z,5.43
2022-10-22T08:00:09.032Z,5.60
2022-10-22T08:02:35.542Z,5.17
2022-10-22T08:05:01.965Z,4.83
2022-10-22T08:07:28.478Z,4.23
2022-10-22T08:09:55.004Z,4.27
2022-10-22T08:12:21.597Z,3.60
2022-10-22T08:14:48.003Z,4.00
2022-10-22T08:17:15.685Z,3.67
2022-10-22T08:19:42.110Z,2.80
2022-10-22T08:22:09.869Z,4.70
2022-10-22T08:24:36.280Z,13.17
2022-10-22T08:27:02.756Z,4.17
2022-10-22T08:29:29.172Z,3.60
2022-10-22T08:31:55.566Z,2.93
2022-10-22T08:34:21.964Z,2.80
2022-10-22T08:36:48.444Z,2.40
2022-10-22T08:39:14.961Z,2.63
2022-10-22T08:41:47.606Z,2.50
2022-10-22T08:44:32.802Z,3.47
2022-10-22T08:47:30.849Z,3.53
2022-10-22T08:49:59.938Z,2.90
2022-10-22T08:52:26.507Z,3.13
2022-10-22T08:54:56.014Z,2.70
2022-10-22T08:57:56.593Z,4.87
2022-10-22T09:00:55.431Z,7.40
2022-10-22T09:03:51.035Z,3.40
2022-10-22T09:06:22.809Z,2.93
2022-10-22T09:08:50.186Z,2.23
2022-10-22T09:11:30.509Z,2.30
2022-10-22T09:13:58.486Z,2.53
2022-10-22T09:16:38.539Z,2.00
2022-10-22T09:19:32.923Z,2.30
2022-10-22T09:22:14.267Z,1.80
2022-10-22T09:24:52.463Z,2.10
2022-10-22T09:27:25.859Z,1.90
2022-10-22T09:29:52.287Z,2.20
2022-10-22T09:32:19.517Z,1.93
2022-10-22T09:34:49.766Z,2.03
2022-10-22T09:37:19.050Z,2.80
2022-10-22T09:39:50.841Z,3.03
2022-10-22T09:42:20.034Z,3.17
2022-10-22T09:44:55.366Z,2.00
2022-10-22T09:47:43.013Z,1.90
2022-10-22T09:50:44.196Z,2.33
2022-10-22T09:53:23.283Z,2.50
2022-10-22T09:56:01.035Z,1.80
2022-10-22T09:58:28.389Z,1.70
2022-10-22T10:00:58.353Z,2.13
2022-10-22T10:03:28.056Z,1.73
2022-10-22T10:06:01.391Z,1.87
2022-10-22T10:08:31.479Z,2.50
2022-10-22T10:11:29.113Z,2.27
2022-10-22T10:14:21.601Z,1.77
2022-10-22T10:17:39.754Z,1.90
2022-10-22T10:20:29.494Z,2.20
2022-10-22T10:23:04.756Z,1.90
2022-10-22T10:26:09.467Z,1.30
2022-10-22T10:28:57.227Z,1.93
2022-10-22T10:31:41.787Z,2.30
2022-10-22T10:34:20.511Z,1.57
2022-10-22T10:37:34.448Z,1.90
2022-10-22T10:40:03.604Z,1.77
2022-10-22T10:42:51.755Z,2.20
2022-10-22T10:45:41.588Z,2.20
2022-10-22T10:48:08.225Z,1.40
2022-10-22T10:50:50.213Z,1.43
2022-10-22T10:53:48.821Z,1.13
2022-10-22T10:56:53.008Z,1.57
2022-10-22T10:59:37.287Z,1.30
2022-10-22T11:02:29.740Z,1.40
2022-10-22T11:05:14.331Z,1.77
2022-10-22T11:07:47.944Z,1.50
2022-10-22T11:10:46.405Z,1.87
2022-10-22T11:13:24.820Z,1.47
2022-10-22T11:16:22.293Z,1.20
2022-10-22T11:18:58.287Z,1.07
2022-10-22T11:21:42.736Z,1.80
2022-10-22T11:24:35.665Z,0.90
2022-10-22T11:27:14.933Z,1.70
2022-10-22T11:29:46.359Z,1.00
2022-10-22T11:32:20.157Z,1.23
2022-10-22T11:35:08.993Z,1.63
2022-10-22T11:37:39.068Z,1.30
2022-10-22T11:40:18.423Z,1.00
2022-10-22T11:42:49.673Z,1.10
2022-10-22T11:45:15.982Z,1.60
2022-10-22T11:48:14.882Z,1.23
2022-10-22T11:50:41.217Z,1.00
2022-10-22T11:53:13.593Z,1.17
2022-10-22T11:55:45.396Z,1.50
2022-10-22T11:58:30.496Z,1.30
2022-10-22T12:01:02.675Z,0.97
2022-10-22T12:03:31.886Z,1.20
2022-10-22T12:06:15.308Z,1.40
2022-10-22T12:08:45.961Z,1.33
2022-10-22T12:11:12.302Z,1.10
2022-10-22T12:14:03.821Z,1.13
2022-10-22T12:16:54.641Z,0.90
2022-10-22T12:19:22.031Z,1.30
2022-10-22T12:21:53.224Z,1.17
2022-10-22T12:24:23.057Z,0.93
2022-10-22T12:26:52.435Z,1.10
2022-10-22T12:29:23.730Z,1.10
2022-10-22T12:31:50.348Z,0.90
2022-10-22T12:34:21.375Z,1.27
2022-10-22T12:36:50.396Z,1.47
2022-10-22T12:39:20.593Z,1.40
2022-10-22T12:41:47.154Z,1.10
2022-10-22T12:44:17.973Z,0.97
2022-10-22T12:46:48.026Z,0.90
2022-10-22T12:49:21.724Z,1.20
2022-10-22T12:51:49.147Z,1.03
2022-10-22T12:54:35.250Z,1.07
2022-10-22T12:57:02.404Z,0.87
2022-10-22T12:59:38.625Z,1.00
2022-10-22T13:02:18.918Z,1.10
2022-10-22T13:05:24.865Z,1.20
2022-10-22T13:08:03.266Z,1.43
2022-10-22T13:10:56.219Z,1.53
2022-10-22T13:14:01.549Z,1.07
2022-10-22T13:16:30.035Z,1.30
2022-10-22T13:18:56.512Z,1.07
2022-10-22T13:21:39.228Z,1.27
2022-10-22T13:24:24.727Z,1.30
2022-10-22T13:26:53.741Z,1.60
2022-10-22T13:29:22.634Z,1.23
2022-10-22T13:31:52.082Z,1.20
2022-10-22T13:34:22.300Z,1.47
2022-10-22T13:36:49.500Z,1.10
2022-10-22T13:39:20.934Z,1.30
2022-10-22T13:41:50.172Z,1.37
2022-10-22T13:44:18.434Z,1.50
2022-10-22T13:46:45.467Z,1.20
2022-10-22T13:49:17.891Z,1.10
2022-10-22T13:51:44.695Z,1.30
2022-10-22T13:54:16.910Z,1.77
2022-10-22T13:56:43.276Z,1.40
2022-10-22T13:59:10.427Z,0.90
2022-10-22T14:01:37.679Z,1.30
2022-10-22T14:04:07.596Z,0.93
2022-10-22T14:09:11.197Z,1.70
2022-10-22T14:11:37.741Z,1.80
2022-10-22T14:14:08.588Z,1.43
2022-10-22T14:16:37.159Z,1.60
2022-10-22T14:19:04.944Z,1.30
2022-10-22T14:21:35.985Z,2.00
2022-10-22T14:24:02.434Z,2.63
2022-10-22T14:26:33.079Z,2.00
2022-10-22T14:29:09.909Z,1.53
2022-10-22T14:34:13.541Z,1.47
2022-10-22T14:36:40.188Z,1.40
2022-10-22T14:39:06.727Z,2.00
2022-10-22T14:41:33.494Z,1.70
2022-10-22T14:44:00.071Z,1.40
2022-10-22T14:46:26.650Z,1.50
2022-10-22T14:48:53.186Z,1.23
2022-10-22T14:51:21.563Z,1.40
2022-10-22T14:53:48.622Z,1.40
2022-10-22T14:56:17.935Z,1.70
2022-10-22T14:58:45.710Z,1.63
2022-10-22T15:01:12.584Z,1.60
2022-10-22T15:03:39.058Z,1.47
2022-10-22T15:06:05.942Z,1.50
2022-10-22T15:08:32.426Z,1.50
2022-10-22T15:11:00.634Z,1.30
2022-10-22T15:13:28.977Z,1.53
2022-10-22T15:15:56.224Z,1.37
2022-10-22T15:18:23.369Z,1.70
2022-10-22T15:21:01.245Z,1.97
2022-10-22T15:23:28.294Z,1.60
2022-10-22T15:25:55.387Z,1.80
2022-10-22T15:28:22.057Z,1.73
2022-10-22T15:31:00.033Z,1.67
2022-10-22T15:33:28.467Z,1.53
2022-10-22T15:35:55.832Z,2.00
2022-10-22T15:38:26.569Z,1.47
2022-10-22T15:41:05.511Z,1.93
2022-10-22T15:43:33.063Z,2.40
2022-10-22T15:46:18.435Z,1.93
2022-10-22T15:48:45.831Z,1.60
2022-10-22T15:51:18.038Z,1.43
2022-10-22T15:53:50.520Z,1.90
2022-10-22T15:56:16.932Z,1.40
2022-10-22T15:58:43.357Z,1.70
2022-10-22T16:01:12.978Z,2.93
2022-10-22T16:03:40.354Z,7.10
2022-10-22T16:06:08.164Z,4.53
2022-10-22T16:08:35.263Z,3.03
2022-10-22T16:11:01.685Z,2.60
2022-10-22T16:13:28.113Z,2.47
2022-10-22T16:15:54.510Z,1.77
2022-10-22T16:18:21.492Z,1.53
2022-10-22T16:20:47.918Z,1.80
2022-10-22T16:23:18.459Z,2.10
2022-10-22T16:25:45.983Z,2.33
2022-10-22T16:28:12.737Z,3.03
2022-10-22T16:30:39.392Z,2.43
2022-10-22T16:33:07.336Z,3.97
2022-10-22T16:35:33.993Z,5.53
2022-10-22T16:38:00.431Z,3.57
2022-10-22T16:40:27.063Z,3.20
2022-10-22T16:42:53.453Z,1.90
2022-10-22T16:45:19.815Z,1.67
2022-10-22T16:47:46.971Z,2.00
2022-10-22T16:50:13.509Z,2.30
2022-10-22T16:52:39.914Z,2.83
2022-10-22T16:55:06.637Z,2.53
2022-10-22T16:57:33.935Z,2.90
2022-10-22T17:00:00.399Z,1.73
2022-10-22T17:02:26.769Z,2.10
2022-10-22T17:04:53.170Z,2.17
2022-10-22T17:07:19.590Z,1.93
2022-10-22T17:09:45.948Z,1.90
2022-10-22T17:12:12.470Z,1.73
2022-10-22T17:14:39.026Z,1.47
2022-10-22T17:17:05.421Z,1.90
2022-10-22T17:19:31.940Z,1.63
2022-10-22T17:21:58.312Z,1.70
2022-10-22T17:24:24.702Z,2.50
2022-10-22T17:26:51.203Z,2.00
2022-10-22T17:29:18.027Z,2.50
2022-10-22T17:31:44.446Z,2.50
2022-10-22T17:34:16.145Z,2.57
2022-10-22T17:36:43.216Z,2.40
2022-10-22T17:39:15.950Z,2.50
2022-10-22T17:41:42.382Z,1.60
2022-10-22T17:44:09.205Z,2.07
2022-10-22T17:46:36.055Z,2.10
2022-10-22T17:49:05.098Z,2.07
2022-10-22T17:51:31.771Z,2.10
2022-10-22T17:53:58.641Z,2.33
2022-10-22T17:56:27.752Z,2.20
2022-10-22T17:58:54.565Z,2.30
2022-10-22T18:01:24.851Z,2.63
2022-10-22T18:03:52.784Z,2.10
2022-10-22T18:06:19.721Z,2.40
2022-10-22T18:08:46.256Z,2.87
2022-10-22T18:11:16.447Z,1.93
2022-10-22T18:13:42.891Z,2.73
2022-10-22T18:16:09.360Z,3.17
2022-10-22T18:18:36.739Z,8.10
2022-10-22T18:21:03.815Z,8.57
2022-10-22T18:23:30.225Z,6.57
2022-10-22T18:25:56.647Z,4.47
2022-10-22T18:28:23.181Z,5.00
2022-10-22T18:30:50.791Z,4.60
2022-10-22T18:33:18.879Z,3.70
2022-10-22T18:35:48.277Z,2.53
2022-10-22T18:38:14.696Z,3.80
2022-10-22T18:40:48.545Z,3.23
2022-10-22T18:43:16.201Z,3.20
2022-10-22T18:45:43.925Z,4.93
2022-10-22T18:48:10.953Z,4.90
2022-10-22T18:50:37.445Z,6.00
2022-10-22T18:53:03.997Z,4.47
2022-10-22T18:55:30.839Z,5.40
2022-10-22T18:57:57.221Z,4.63
2022-10-22T19:00:26.368Z,5.10
2022-10-22T19:02:54.025Z,3.03
2022-10-22T19:05:20.691Z,3.10
2022-10-22T19:07:48.671Z,1.87
2022-10-22T19:10:15.130Z,2.47
2022-10-22T19:12:41.594Z,2.80
2022-10-22T19:15:08.406Z,3.57
2022-10-22T19:17:35.070Z,2.57
2022-10-22T19:20:01.591Z,2.77
2022-10-22T19:22:28.049Z,2.30
2022-10-22T19:24:54.551Z,2.90
2022-10-22T19:27:20.990Z,2.50
2022-10-22T19:29:49.381Z,2.10
2022-10-22T19:32:16.746Z,1.90
2022-10-22T19:34:43.132Z,2.20
2022-10-22T19:37:09.504Z,3.20
2022-10-22T19:39:36.024Z,2.30
2022-10-22T19:42:04.141Z,2.33
2022-10-22T19:44:31.077Z,2.40
2022-10-22T19:46:57.447Z,2.87
2022-10-22T19:49:24.342Z,2.67
2022-10-22T19:51:50.790Z,3.03
2022-10-22T19:54:19.545Z,3.00
2022-10-22T19:56:46.675Z,3.07
2022-10-22T19:59:15.486Z,3.30
2022-10-22T20:01:42.282Z,3.20
2022-10-22T20:04:13.882Z,4.00
2022-10-22T20:06:40.309Z,3.83
2022-10-22T20:09:06.702Z,4.20
2022-10-22T20:11:33.153Z,3.90
2022-10-22T20:13:59.549Z,3.47
2022-10-22T20:16:29.550Z,4.03
2022-10-22T20:19:00.539Z,6.17
2022-10-22T20:21:27.439Z,5.80
2022-10-22T20:23:56.514Z,5.80
2022-10-22T20:26:24.423Z,3.47
2022-10-22T20:28:51.909Z,3.60
2022-10-22T20:31:20.572Z,2.70
2022-10-22T20:33:47.998Z,3.33
2022-10-22T20:36:17.600Z,5.47
2022-10-22T20:38:45.360Z,6.07
2022-10-22T20:41:14.114Z,7.13
2022-10-22T20:43:43.561Z,4.30
2022-10-22T20:46:16.793Z,4.53
2022-10-22T20:48:43.492Z,5.83
2022-10-22T20:51:09.965Z,6.80
2022-10-22T20:53:36.380Z,7.93
2022-10-22T20:56:02.923Z,9.47
2022-10-22T20:58:30.733Z,7.93
2022-10-22T21:00:58.995Z,7.97
2022-10-22T21:03:25.417Z,8.23
2022-10-22T21:05:51.823Z,7.50
2022-10-22T21:08:18.259Z,5.43
2022-10-22T21:10:49.094Z,5.53
2022-10-22T21:13:16.822Z,9.10
2022-10-22T21:15:43.246Z,8.00
2022-10-22T21:18:09.698Z,12.30
2022-10-22T21:20:36.157Z,10.50
2022-10-22T21:23:02.545Z,10.93
2022-10-22T21:25:28.987Z,9.80
2022-10-22T21:27:55.448Z,9.97
2022-10-22T21:30:21.855Z,9.47
2022-10-22T21:32:48.242Z,8.57
2022-10-22T21:35:14.742Z,6.23
2022-10-22T21:37:41.428Z,8.30
2022-10-22T21:40:08.643Z,7.20
2022-10-22T21:42:35.043Z,7.37
2022-10-22T21:45:01.587Z,6.00
2022-10-22T21:47:28.150Z,4.90
2022-10-22T21:49:54.761Z,5.17
2022-10-22T21:52:21.242Z,5.87
2022-10-22T21:54:47.649Z,6.57
2022-10-22T21:57:14.017Z,6.33
2022-10-22T21:59:40.526Z,8.53
2022-10-22T22:02:07.062Z,9.47
2022-10-22T22:04:33.773Z,8.43
2022-10-22T22:07:00.241Z,7.73
2022-10-22T22:09:26.705Z,5.13
2022-10-22T22:11:53.075Z,6.23
2022-10-22T22:14:19.488Z,6.10
2022-10-22T22:16:45.898Z,5.20
2022-10-22T22:19:12.458Z,4.57
2022-10-22T22:21:40.363Z,4.50
2022-10-22T22:24:07.748Z,4.43
2022-10-22T22:26:34.426Z,4.17
2022-10-22T22:29:01.188Z,3.93
2022-10-22T22:31:33.170Z,4.83
2022-10-22T22:34:08.537Z,5.10
2022-10-22T22:36:40.481Z,5.20
2022-10-22T22:39:08.959Z,4.10
2022-10-22T22:41:35.413Z,4.57
2022-10-22T22:44:02.005Z,5.23
2022-10-22T22:46:28.503Z,5.30
2022-10-22T22:48:55.015Z,4.40
2022-10-22T22:51:21.443Z,7.10
2022-10-22T22:53:48.005Z,7.60
2022-10-22T22:56:25.840Z,7.03
2022-10-22T22:58:52.239Z,7.37
2022-10-22T23:01:26.653Z,7.03
2022-10-22T23:04:16.336Z,5.97
2022-10-22T23:06:42.946Z,5.60
2022-10-22T23:09:11.584Z,6.10
2022-10-22T23:11:39.541Z,6.27
2022-10-22T23:14:07.339Z,6.13
2022-10-22T23:16:36.710Z,6.40
2022-10-22T23:19:04.564Z,6.70
2022-10-22T23:21:36.813Z,5.43
2022-10-22T23:24:07.365Z,4.63
2022-10-22T23:26:36.951Z,4.37
2022-10-22T23:29:14.006Z,3.63
2022-10-22T23:31:41.122Z,4.50
2022-10-22T23:34:08.297Z,3.97
2022-10-22T23:36:36.814Z,4.00
2022-10-22T23:39:05.510Z,3.67
2022-10-22T23:41:32.040Z,3.50
2022-10-22T23:43:58.854Z,4.27
2022-10-22T23:46:25.357Z,4.50
2022-10-22T23:48:53.723Z,4.23
2022-10-22T23:51:21.186Z,3.90
2022-10-22T23:53:53.074Z,3.80
2022-10-22T23:56:19.548Z,3.63
2022-10-22T23:58:51.439Z,3.77
